createdAt,value
2019-04-25T00:00:29.595Z,83.14
2019-04-25T00:01:31.224Z,83.25
2019-04-25T00:02:30.893Z,83.25
2019-04-25T00:03:30.006Z,83.96
2019-04-25T00:04:31.497Z,83.34
2019-04-25T00:05:31.094Z,83.45
2019-04-25T00:06:32.157Z,83.25
2019-04-25T00:07:32.881Z,82.01
2019-04-25T00:08:31.181Z,83.14
2019-04-25T00:09:31.992Z,82.63
2019-04-25T00:10:31.839Z,83.34
2019-04-25T00:11:32.302Z,83.34
2019-04-25T00:12:32.052Z,81.40
2019-04-25T00:13:32.835Z,83.41
2019-04-25T00:14:31.923Z,82.53
2019-04-25T00:15:32.019Z,83.45
2019-04-25T00:16:32.252Z,81.20
2019-04-25T00:17:32.506Z,81.71
2019-04-25T00:18:32.695Z,83.25
2019-04-25T00:19:32.950Z,83.55
2019-04-25T00:20:33.119Z,81.71
2019-04-25T00:21:33.867Z,83.25
2019-04-25T00:22:34.347Z,83.34
2019-04-25T00:23:33.505Z,83.18
2019-04-25T00:24:33.695Z,83.34
2019-04-25T00:25:33.888Z,83.39
2019-04-25T00:26:34.058Z,85.33
2019-04-25T00:27:34.207Z,82.97
2019-04-25T00:28:34.362Z,82.26
2019-04-25T00:29:34.529Z,83.76
2019-04-25T00:30:34.730Z,85.44
2019-04-25T00:31:34.865Z,85.54
2019-04-25T00:32:35.008Z,86.15
2019-04-25T00:33:35.169Z,88.24
2019-04-25T00:34:35.336Z,87.22
2019-04-25T00:35:35.558Z,85.82
2019-04-25T00:36:35.700Z,88.90
2019-04-25T00:37:35.860Z,89.87
2019-04-25T00:38:36.036Z,90.18
2019-04-25T00:39:36.186Z,87.92
2019-04-25T00:40:37.365Z,89.46
2019-04-25T00:41:36.478Z,88.89
2019-04-25T00:42:36.602Z,89.81
2019-04-25T00:43:36.762Z,89.81
2019-04-25T00:44:36.915Z,90.16
2019-04-25T00:45:37.115Z,90.16
2019-04-25T00:46:37.277Z,90.06
2019-04-25T00:47:37.429Z,91.25
2019-04-25T00:48:37.585Z,90.06
2019-04-25T00:49:37.736Z,90.06
2019-04-25T00:50:37.898Z,89.75
2019-04-25T00:51:38.078Z,89.95
2019-04-25T00:52:38.221Z,90.41
2019-04-25T00:53:38.384Z,91.23
2019-04-25T00:54:38.533Z,90.67
2019-04-25T00:55:38.717Z,89.95
2019-04-25T00:56:38.921Z,88.37
2019-04-25T00:57:39.061Z,86.27
2019-04-25T00:58:39.232Z,85.72
2019-04-25T00:59:39.407Z,85.21
2019-04-25T01:00:39.585Z,85.62
2019-04-25T01:01:41.411Z,83.73
2019-04-25T01:02:39.853Z,83.32
2019-04-25T01:03:40.012Z,82.19
2019-04-25T01:04:41.838Z,82.15
2019-04-25T01:05:40.373Z,81.64
2019-04-25T01:06:41.659Z,82.15
2019-04-25T01:07:42.215Z,81.74
2019-04-25T01:08:41.526Z,80.88
2019-04-25T01:09:42.381Z,79.86
2019-04-25T01:10:42.356Z,79.96
2019-04-25T01:11:42.403Z,80.58
2019-04-25T01:12:41.764Z,80.17
2019-04-25T01:13:42.793Z,80.17
2019-04-25T01:14:42.139Z,80.37
2019-04-25T01:15:42.570Z,80.41
2019-04-25T01:16:43.360Z,80.62
2019-04-25T01:17:42.635Z,80.82
2019-04-25T01:18:43.665Z,81.74
2019-04-25T01:19:45.084Z,81.54
2019-04-25T01:20:45.404Z,81.23
2019-04-25T01:21:44.030Z,80.47
2019-04-25T01:22:45.657Z,80.27
2019-04-25T01:23:43.761Z,80.00
2019-04-25T01:24:44.024Z,80.31
2019-04-25T01:25:46.694Z,81.13
2019-04-25T01:26:44.254Z,81.23
2019-04-25T01:27:44.419Z,84.31
2019-04-25T01:28:46.075Z,82.09
2019-04-25T01:29:46.218Z,82.60
2019-04-25T01:30:46.293Z,81.57
2019-04-25T01:31:46.495Z,82.29
2019-04-25T01:32:46.670Z,83.42
2019-04-25T01:33:46.690Z,83.22
2019-04-25T01:34:46.943Z,82.60
2019-04-25T01:35:46.219Z,82.60
2019-04-25T01:36:47.091Z,83.32
2019-04-25T01:37:47.370Z,83.46
2019-04-25T01:38:47.293Z,83.46
2019-04-25T01:39:47.454Z,83.26
2019-04-25T01:40:48.126Z,84.08
2019-04-25T01:41:47.601Z,84.08
2019-04-25T01:42:47.854Z,83.56
2019-04-25T01:43:48.287Z,83.91
2019-04-25T01:44:48.044Z,84.59
2019-04-25T01:45:48.217Z,84.94
2019-04-25T01:46:48.244Z,85.21
2019-04-25T01:47:49.059Z,83.36
2019-04-25T01:48:48.582Z,83.05
2019-04-25T01:49:48.891Z,83.42
2019-04-25T01:50:49.619Z,81.13
2019-04-25T01:51:48.909Z,81.64
2019-04-25T01:52:48.961Z,81.64
2019-04-25T01:53:49.112Z,81.02
2019-04-25T01:54:49.306Z,80.41
2019-04-25T01:55:56.028Z,79.96
2019-04-25T01:56:51.207Z,81.64
2019-04-25T01:57:49.450Z,80.51
2019-04-25T01:58:49.696Z,80.31
2019-04-25T01:59:49.880Z,80.92
2019-04-25T02:00:51.358Z,81.95
2019-04-25T02:01:50.947Z,80.21
2019-04-25T02:02:51.080Z,81.74
2019-04-25T02:03:51.249Z,81.57
2019-04-25T02:04:51.423Z,82.19
2019-04-25T02:05:51.432Z,83.32
2019-04-25T02:06:51.480Z,83.63
2019-04-25T02:07:51.515Z,83.42
2019-04-25T02:08:51.729Z,83.53
2019-04-25T02:09:52.182Z,82.54
2019-04-25T02:10:52.320Z,83.36
2019-04-25T02:11:52.897Z,84.59
2019-04-25T02:12:52.693Z,83.40
2019-04-25T02:13:54.636Z,85.35
2019-04-25T02:14:54.662Z,84.01
2019-04-25T02:15:54.778Z,85.35
2019-04-25T02:16:55.046Z,85.46
2019-04-25T02:17:54.155Z,85.35
2019-04-25T02:18:55.137Z,85.66
2019-04-25T02:19:55.502Z,86.48
2019-04-25T02:20:57.920Z,85.35
2019-04-25T02:21:55.602Z,86.21
2019-04-25T02:22:55.623Z,87.82
2019-04-25T02:23:55.501Z,87.45
2019-04-25T02:24:56.241Z,87.69
2019-04-25T02:26:05.922Z,87.28
2019-04-25T02:26:57.279Z,88.00
2019-04-25T02:27:55.923Z,89.13
2019-04-25T02:28:56.483Z,89.23
2019-04-25T02:29:55.981Z,88.00
2019-04-25T02:30:59.721Z,87.59
2019-04-25T02:31:59.204Z,88.51
2019-04-25T02:33:01.827Z,87.59
2019-04-25T02:34:00.339Z,87.07
2019-04-25T02:35:00.473Z,87.18
2019-04-25T02:36:00.990Z,86.15
2019-04-25T02:37:00.904Z,86.15
2019-04-25T02:38:01.325Z,87.18
2019-04-25T02:39:01.246Z,87.38
2019-04-25T02:39:59.991Z,87.59
2019-04-25T02:40:59.506Z,86.46
2019-04-25T02:42:00.592Z,87.38
2019-04-25T02:43:00.223Z,85.49
2019-04-25T02:44:03.749Z,84.05
2019-04-25T02:45:02.145Z,83.40
2019-04-25T02:46:00.023Z,81.92
2019-04-25T02:47:00.298Z,80.04
2019-04-25T02:48:00.022Z,80.65
2019-04-25T02:49:00.941Z,80.55
2019-04-25T02:50:00.847Z,80.51
2019-04-25T02:51:01.125Z,81.57
2019-04-25T02:52:00.737Z,81.78
2019-04-25T02:53:01.323Z,81.06
2019-04-25T02:53:59.775Z,80.35
2019-04-25T02:55:02.191Z,80.10
2019-04-25T02:56:00.018Z,80.04
2019-04-25T02:57:00.155Z,78.87
2019-04-25T02:58:00.443Z,79.90
2019-04-25T02:59:00.500Z,79.38
2019-04-25T03:00:00.659Z,77.74
2019-04-25T03:01:10.661Z,78.87
2019-04-25T03:02:05.255Z,78.77
2019-04-25T03:03:01.271Z,77.91
2019-04-25T03:04:02.742Z,78.83
2019-04-25T03:05:03.975Z,78.02
2019-04-25T03:06:02.999Z,77.71
2019-04-25T03:07:06.608Z,76.85
2019-04-25T03:08:08.007Z,76.14
2019-04-25T03:09:04.044Z,76.95
2019-04-25T03:10:06.067Z,76.34
2019-04-25T03:11:05.560Z,74.87
2019-04-25T03:12:06.094Z,75.48
2019-04-25T03:13:07.981Z,74.66
2019-04-25T03:14:07.126Z,74.97
2019-04-25T03:15:07.186Z,74.87
2019-04-25T03:16:07.657Z,74.46
2019-04-25T03:17:07.858Z,74.87
2019-04-25T03:18:10.363Z,74.36
2019-04-25T03:19:07.607Z,74.15
2019-04-25T03:20:08.086Z,74.87
2019-04-25T03:21:11.771Z,74.97
2019-04-25T03:22:09.632Z,74.05
2019-04-25T03:23:09.004Z,74.77
2019-04-25T03:24:10.240Z,74.05
2019-04-25T03:25:10.793Z,73.74
2019-04-25T03:26:07.629Z,74.56
2019-04-25T03:27:06.228Z,74.77
2019-04-25T03:28:06.132Z,73.74
2019-04-25T03:29:06.243Z,73.95
2019-04-25T03:30:11.772Z,73.95
2019-04-25T03:31:15.235Z,72.92
2019-04-25T03:32:09.933Z,73.71
2019-04-25T03:33:13.047Z,74.05
2019-04-25T03:34:13.816Z,73.54
2019-04-25T03:35:09.420Z,73.13
2019-04-25T03:36:07.885Z,73.85
2019-04-25T03:37:07.865Z,72.78
2019-04-25T03:38:08.403Z,73.10
2019-04-25T03:39:08.777Z,72.69
2019-04-25T03:40:09.662Z,74.02
2019-04-25T03:41:08.670Z,73.44
2019-04-25T03:42:08.661Z,72.92
2019-04-25T03:43:08.945Z,73.23
2019-04-25T03:44:08.948Z,73.74
2019-04-25T03:45:09.244Z,72.92
2019-04-25T03:46:09.279Z,73.23
2019-04-25T03:47:09.781Z,72.78
2019-04-25T03:48:09.656Z,73.20
2019-04-25T03:49:09.898Z,74.94
2019-04-25T03:50:10.029Z,73.20
2019-04-25T03:51:10.273Z,73.50
2019-04-25T03:52:10.408Z,72.92
2019-04-25T03:53:10.543Z,72.99
2019-04-25T03:54:10.718Z,72.78
2019-04-25T03:55:10.864Z,72.78
2019-04-25T03:56:10.997Z,72.69
2019-04-25T03:57:11.153Z,72.99
2019-04-25T03:58:11.730Z,72.99
2019-04-25T03:59:11.511Z,73.13
2019-04-25T04:00:13.389Z,72.89
2019-04-25T04:01:11.778Z,72.89
2019-04-25T04:02:13.019Z,72.89
2019-04-25T04:03:14.214Z,73.10
2019-04-25T04:04:15.763Z,73.30
2019-04-25T04:05:13.884Z,73.10
2019-04-25T04:06:14.211Z,73.13
2019-04-25T04:07:14.369Z,72.78
2019-04-25T04:08:14.827Z,72.89
2019-04-25T04:09:14.246Z,73.20
2019-04-25T04:10:15.476Z,72.69
2019-04-25T04:11:14.535Z,72.89
2019-04-25T04:12:15.661Z,72.58
2019-04-25T04:13:14.612Z,73.10
2019-04-25T04:14:15.777Z,72.99
2019-04-25T04:15:14.932Z,73.64
2019-04-25T04:16:15.731Z,72.69
2019-04-25T04:17:15.122Z,73.91
2019-04-25T04:18:17.260Z,72.99
2019-04-25T04:19:15.856Z,72.99
2019-04-25T04:20:15.953Z,72.28
2019-04-25T04:21:16.196Z,72.78
2019-04-25T04:22:16.364Z,72.69
2019-04-25T04:23:15.467Z,72.99
2019-04-25T04:24:16.079Z,72.48
2019-04-25T04:25:16.018Z,71.97
2019-04-25T04:26:15.956Z,73.23
2019-04-25T04:27:16.792Z,74.02
2019-04-25T04:28:16.254Z,73.44
2019-04-25T04:29:16.546Z,73.54
2019-04-25T04:30:16.598Z,72.92
2019-04-25T04:31:16.740Z,73.54
2019-04-25T04:32:17.403Z,72.92
2019-04-25T04:33:29.575Z,74.97
2019-04-25T04:34:19.319Z,73.64
2019-04-25T04:35:17.603Z,72.92
2019-04-25T04:36:19.035Z,72.82
2019-04-25T04:37:17.926Z,72.78
2019-04-25T04:38:18.145Z,73.40
2019-04-25T04:39:18.816Z,73.13
2019-04-25T04:40:18.691Z,73.44
2019-04-25T04:41:19.729Z,73.13
2019-04-25T04:42:18.850Z,74.87
2019-04-25T04:43:18.997Z,73.95
2019-04-25T04:44:19.171Z,73.36
2019-04-25T04:45:19.356Z,73.54
2019-04-25T04:46:19.807Z,72.52
2019-04-25T04:47:19.706Z,73.33
2019-04-25T04:48:19.848Z,71.45
2019-04-25T04:49:20.012Z,72.17
2019-04-25T04:50:20.173Z,71.36
2019-04-25T04:51:20.338Z,72.58
2019-04-25T04:52:20.480Z,72.65
2019-04-25T04:53:20.648Z,71.32
2019-04-25T04:54:20.774Z,71.01
2019-04-25T04:55:20.925Z,71.53
2019-04-25T04:56:21.083Z,71.53
2019-04-25T04:57:28.939Z,70.67
2019-04-25T04:58:24.993Z,70.29
2019-04-25T04:59:21.466Z,70.26
2019-04-25T05:00:21.652Z,70.16
2019-04-25T05:01:21.789Z,69.65
2019-04-25T05:02:23.537Z,68.63
2019-04-25T05:03:22.143Z,68.90
2019-04-25T05:04:24.899Z,68.90
2019-04-25T05:05:23.496Z,68.08
2019-04-25T05:06:24.062Z,68.60
2019-04-25T05:07:23.720Z,69.11
2019-04-25T05:08:24.762Z,69.52
2019-04-25T05:09:23.854Z,69.42
2019-04-25T05:10:24.616Z,68.39
2019-04-25T05:11:25.328Z,68.77
2019-04-25T05:12:24.663Z,68.80
2019-04-25T05:13:24.288Z,68.87
2019-04-25T05:14:26.600Z,67.65
2019-04-25T05:15:25.226Z,67.75
2019-04-25T05:16:24.367Z,67.75
2019-04-25T05:17:25.429Z,67.03
2019-04-25T05:18:34.578Z,68.97
2019-04-25T05:19:27.017Z,69.04
2019-04-25T05:20:25.120Z,68.23
2019-04-25T05:21:25.273Z,69.04
2019-04-25T05:22:25.438Z,68.02
2019-04-25T05:23:25.597Z,66.18
2019-04-25T05:24:26.368Z,67.68
2019-04-25T05:25:26.991Z,66.39
2019-04-25T05:26:26.094Z,67.58
2019-04-25T05:27:36.072Z,65.64
2019-04-25T05:28:28.462Z,65.20
2019-04-25T05:29:26.765Z,65.41
2019-04-25T05:30:27.735Z,65.41
2019-04-25T05:31:26.924Z,65.41
2019-04-25T05:32:27.098Z,67.04
2019-04-25T05:33:27.260Z,65.17
2019-04-25T05:34:27.472Z,65.48
2019-04-25T05:35:27.607Z,64.56
2019-04-25T05:36:27.705Z,64.97
2019-04-25T05:37:27.828Z,66.09
2019-04-25T05:38:28.080Z,65.17
2019-04-25T05:39:28.187Z,65.17
2019-04-25T05:40:28.444Z,67.01
2019-04-25T05:41:28.565Z,66.60
2019-04-25T05:42:28.715Z,64.94
2019-04-25T05:43:28.960Z,65.95
2019-04-25T05:44:29.061Z,66.67
2019-04-25T05:45:29.316Z,65.55
2019-04-25T05:46:29.447Z,65.37
2019-04-25T05:47:29.686Z,65.28
2019-04-25T05:48:29.792Z,64.05
2019-04-25T05:49:30.084Z,65.04
2019-04-25T05:50:30.191Z,63.41
2019-04-25T05:51:30.341Z,63.82
2019-04-25T05:52:30.488Z,64.43
2019-04-25T05:53:30.627Z,64.22
2019-04-25T05:54:30.784Z,64.22
2019-04-25T05:55:30.912Z,63.61
2019-04-25T05:56:31.051Z,63.41
2019-04-25T05:57:44.748Z,63.28
2019-04-25T05:58:33.744Z,64.50
2019-04-25T05:59:31.584Z,65.31
2019-04-25T06:00:31.774Z,65.08
2019-04-25T06:01:31.928Z,62.84
2019-04-25T06:02:32.075Z,62.33
2019-04-25T06:03:33.958Z,61.82
2019-04-25T06:04:33.672Z,63.24
2019-04-25T06:05:33.735Z,61.31
2019-04-25T06:06:36.489Z,61.59
2019-04-25T06:07:33.971Z,61.79
2019-04-25T06:08:34.134Z,61.38
2019-04-25T06:09:33.720Z,60.88
2019-04-25T06:10:34.340Z,61.99
2019-04-25T06:11:33.705Z,61.69
2019-04-25T06:12:34.708Z,60.27
2019-04-25T06:13:33.913Z,61.31
2019-04-25T06:14:35.131Z,62.02
2019-04-25T06:15:34.328Z,61.82
2019-04-25T06:16:34.560Z,61.41
2019-04-25T06:17:34.732Z,62.94
2019-04-25T06:18:34.867Z,63.07
2019-04-25T06:19:35.087Z,61.65
2019-04-25T06:20:35.318Z,62.87
2019-04-25T06:21:35.559Z,63.28
2019-04-25T06:22:35.704Z,61.54
2019-04-25T06:23:35.839Z,61.95
2019-04-25T06:24:35.993Z,61.75
2019-04-25T06:25:39.641Z,61.00
2019-04-25T06:26:39.957Z,61.31
2019-04-25T06:27:37.577Z,60.19
2019-04-25T06:28:48.997Z,60.30
2019-04-25T06:29:37.848Z,59.45
2019-04-25T06:30:36.971Z,60.77
2019-04-25T06:31:37.118Z,61.38
2019-04-25T06:32:37.313Z,59.63
2019-04-25T06:33:37.487Z,60.24
2019-04-25T06:34:37.624Z,59.83
2019-04-25T06:35:37.869Z,58.81
2019-04-25T06:36:37.985Z,58.81
2019-04-25T06:37:38.170Z,58.61
2019-04-25T06:38:38.382Z,59.32
2019-04-25T06:39:38.530Z,59.53
2019-04-25T06:40:38.673Z,58.61
2019-04-25T06:41:38.911Z,58.78
2019-04-25T06:42:39.035Z,59.42
2019-04-25T06:43:39.185Z,58.99
2019-04-25T06:44:39.360Z,59.09
2019-04-25T06:45:39.514Z,59.50
2019-04-25T06:46:39.691Z,60.72
2019-04-25T06:47:39.836Z,59.60
2019-04-25T06:48:40.023Z,58.04
2019-04-25T06:49:40.183Z,58.35
2019-04-25T06:50:40.332Z,57.64
2019-04-25T06:51:40.474Z,58.04
2019-04-25T06:52:40.621Z,57.31
2019-04-25T06:53:40.806Z,57.41
2019-04-25T06:54:40.971Z,57.89
2019-04-25T06:55:41.170Z,57.28
2019-04-25T06:56:41.325Z,57.38
2019-04-25T06:57:41.490Z,56.98
2019-04-25T06:58:41.672Z,57.48
2019-04-25T06:59:43.699Z,55.99
2019-04-25T07:00:55.845Z,57.79
2019-04-25T07:01:44.126Z,57.18
2019-04-25T07:02:43.521Z,57.28
2019-04-25T07:03:44.070Z,56.87
2019-04-25T07:04:43.475Z,56.90
2019-04-25T07:05:43.961Z,56.29
2019-04-25T07:06:45.446Z,57.51
2019-04-25T07:07:45.286Z,56.09
2019-04-25T07:08:44.774Z,56.26
2019-04-25T07:09:44.736Z,57.79
2019-04-25T07:10:44.644Z,56.47
2019-04-25T07:11:48.090Z,57.28
2019-04-25T07:12:44.422Z,57.05
2019-04-25T07:13:45.495Z,55.63
2019-04-25T07:14:44.684Z,56.54
2019-04-25T07:15:44.866Z,55.50
2019-04-25T07:16:45.024Z,55.91
2019-04-25T07:17:45.767Z,55.80
2019-04-25T07:18:46.385Z,55.78
2019-04-25T07:19:45.575Z,53.85
2019-04-25T07:20:45.784Z,55.47
2019-04-25T07:21:45.938Z,55.58
2019-04-25T07:22:46.092Z,52.41
2019-04-25T07:23:47.238Z,53.93
2019-04-25T07:24:46.398Z,54.13
2019-04-25T07:25:46.554Z,53.80
2019-04-25T07:26:46.745Z,52.08
2019-04-25T07:27:46.946Z,53.63
2019-04-25T07:28:47.119Z,51.60
2019-04-25T07:29:47.313Z,53.22
2019-04-25T07:30:51.650Z,52.20
2019-04-25T07:31:49.599Z,54.00
2019-04-25T07:32:47.761Z,52.18
2019-04-25T07:33:47.945Z,52.51
2019-04-25T07:34:48.114Z,52.79
2019-04-25T07:35:48.334Z,51.80
2019-04-25T07:36:48.509Z,53.63
2019-04-25T07:37:48.737Z,53.12
2019-04-25T07:38:48.894Z,51.78
2019-04-25T07:39:49.064Z,52.59
2019-04-25T07:40:49.210Z,51.47
2019-04-25T07:41:49.390Z,51.95
2019-04-25T07:42:49.547Z,50.94
2019-04-25T07:43:49.693Z,51.86
2019-04-25T07:44:52.944Z,51.45
2019-04-25T07:45:53.524Z,51.86
2019-04-25T07:46:50.250Z,52.13
2019-04-25T07:47:50.448Z,50.38
2019-04-25T07:48:51.494Z,49.88
2019-04-25T07:49:50.784Z,51.20
2019-04-25T07:50:50.943Z,49.17
2019-04-25T07:51:51.141Z,49.27
2019-04-25T07:52:51.376Z,50.38
2019-04-25T07:53:51.402Z,49.86
2019-04-25T07:54:51.576Z,49.45
2019-04-25T07:55:51.768Z,48.46
2019-04-25T07:56:54.828Z,48.65
2019-04-25T07:57:53.342Z,49.96
2019-04-25T07:58:53.211Z,49.76
2019-04-25T07:59:53.752Z,46.84
2019-04-25T08:00:53.997Z,49.25
2019-04-25T08:01:53.919Z,47.63
2019-04-25T08:02:54.265Z,48.65
2019-04-25T08:03:53.743Z,48.85
2019-04-25T08:04:55.816Z,48.95
2019-04-25T08:05:53.599Z,48.65
2019-04-25T08:06:54.274Z,49.73
2019-04-25T08:07:54.982Z,48.65
2019-04-25T08:08:54.582Z,48.95
2019-04-25T08:09:55.321Z,47.51
2019-04-25T08:10:54.498Z,47.81
2019-04-25T08:11:54.934Z,47.89
2019-04-25T08:12:55.849Z,49.30
2019-04-25T08:13:54.996Z,48.19
2019-04-25T08:14:55.190Z,47.69
2019-04-25T08:15:55.352Z,47.87
2019-04-25T08:16:55.580Z,48.58
2019-04-25T08:17:55.783Z,49.18
2019-04-25T08:18:55.992Z,47.77
2019-04-25T08:19:56.192Z,51.10
2019-04-25T08:20:56.354Z,48.55
2019-04-25T08:21:56.564Z,47.52
2019-04-25T08:22:59.046Z,47.32
2019-04-25T08:23:57.866Z,47.02
2019-04-25T08:24:57.038Z,48.75
2019-04-25T08:25:57.234Z,50.24
2019-04-25T08:26:57.412Z,49.52
2019-04-25T08:27:57.604Z,49.09
2019-04-25T08:28:57.962Z,46.47
2019-04-25T08:29:59.006Z,47.38
2019-04-25T08:30:58.042Z,48.46
2019-04-25T08:31:58.238Z,47.07
2019-04-25T08:32:58.472Z,47.67
2019-04-25T08:33:58.683Z,49.09
2019-04-25T08:34:58.912Z,49.44
2019-04-25T08:36:08.183Z,49.13
2019-04-25T08:37:01.294Z,49.05
2019-04-25T08:37:59.426Z,49.96
2019-04-25T08:38:59.625Z,51.84
2019-04-25T08:39:59.811Z,49.31
2019-04-25T08:40:59.978Z,49.41
2019-04-25T08:42:00.177Z,49.09
2019-04-25T08:43:00.335Z,49.41
2019-04-25T08:44:00.498Z,49.01
2019-04-25T08:45:00.678Z,49.29
2019-04-25T08:46:00.851Z,51.59
2019-04-25T08:47:01.065Z,48.99
2019-04-25T08:48:01.243Z,48.69
2019-04-25T08:49:02.405Z,50.07
2019-04-25T08:50:03.653Z,49.49
2019-04-25T08:51:03.560Z,49.19
2019-04-25T08:52:02.079Z,49.90
2019-04-25T08:53:03.876Z,51.43
2019-04-25T08:54:03.832Z,51.15
2019-04-25T08:55:04.207Z,52.04
2019-04-25T08:56:03.826Z,52.76
2019-04-25T08:57:04.413Z,51.96
2019-04-25T08:58:04.171Z,50.65
2019-04-25T08:59:07.517Z,51.56
2019-04-25T09:00:06.089Z,51.15
2019-04-25T09:01:04.141Z,50.12
2019-04-25T09:02:04.952Z,49.92
2019-04-25T09:03:05.881Z,51.81
2019-04-25T09:04:05.185Z,50.30
2019-04-25T09:05:05.360Z,49.29
2019-04-25T09:06:05.527Z,49.90
2019-04-25T09:07:05.497Z,51.00
2019-04-25T09:08:05.817Z,51.00
2019-04-25T09:09:07.094Z,50.35
2019-04-25T09:10:05.087Z,50.45
2019-04-25T09:11:05.235Z,49.55
2019-04-25T09:12:05.419Z,48.86
2019-04-25T09:13:05.595Z,50.70
2019-04-25T09:14:05.791Z,51.13
2019-04-25T09:15:05.944Z,50.93
2019-04-25T09:16:06.120Z,51.84
2019-04-25T09:17:06.326Z,51.13
2019-04-25T09:18:06.512Z,51.53
2019-04-25T09:19:06.704Z,51.86
2019-04-25T09:20:06.891Z,52.26
2019-04-25T09:21:07.057Z,51.45
2019-04-25T09:22:07.273Z,51.40
2019-04-25T09:23:07.476Z,51.58
2019-04-25T09:24:07.669Z,52.69
2019-04-25T09:25:07.839Z,51.58
2019-04-25T09:26:08.029Z,52.79
2019-04-25T09:27:08.217Z,52.49
2019-04-25T09:28:08.441Z,52.69
2019-04-25T09:29:16.684Z,52.31
2019-04-25T09:30:10.772Z,53.12
2019-04-25T09:31:08.912Z,51.71
2019-04-25T09:32:09.069Z,51.91
2019-04-25T09:33:09.323Z,52.01
2019-04-25T09:34:09.409Z,51.91
2019-04-25T09:35:09.573Z,51.71
2019-04-25T09:36:09.757Z,51.61
2019-04-25T09:37:09.919Z,52.61
2019-04-25T09:38:10.077Z,50.90
2019-04-25T09:39:10.252Z,52.01
2019-04-25T09:40:10.402Z,51.91
2019-04-25T09:41:10.617Z,50.90
2019-04-25T09:42:10.796Z,50.39
2019-04-25T09:43:10.970Z,49.99
2019-04-25T09:44:11.135Z,51.81
2019-04-25T09:45:11.322Z,51.61
2019-04-25T09:46:13.158Z,51.20
2019-04-25T09:47:13.539Z,51.10
2019-04-25T09:48:13.205Z,51.81
2019-04-25T09:49:12.104Z,52.01
2019-04-25T09:50:13.861Z,51.20
2019-04-25T09:51:13.566Z,53.83
2019-04-25T09:52:13.377Z,52.21
2019-04-25T09:53:21.919Z,52.11
2019-04-25T09:54:15.196Z,51.81
2019-04-25T09:55:13.303Z,52.82
2019-04-25T09:56:14.109Z,52.41
2019-04-25T09:57:14.210Z,52.51
2019-04-25T09:58:13.641Z,51.89
2019-04-25T09:59:26.506Z,51.40
2019-04-25T10:00:14.724Z,51.48
2019-04-25T10:01:13.969Z,51.71
2019-04-25T10:02:15.015Z,50.37
2019-04-25T10:03:14.223Z,51.45
2019-04-25T10:04:14.310Z,49.92
2019-04-25T10:05:14.549Z,49.59
2019-04-25T10:06:14.746Z,48.89
2019-04-25T10:07:14.917Z,47.74
2019-04-25T10:08:15.130Z,46.33
2019-04-25T10:09:15.714Z,47.41
2019-04-25T10:10:16.504Z,46.49
2019-04-25T10:11:15.644Z,45.53
2019-04-25T10:12:15.798Z,42.46
2019-04-25T10:13:15.990Z,42.03
2019-04-25T10:14:16.216Z,42.46
2019-04-25T10:15:16.382Z,39.56
2019-04-25T10:16:16.540Z,41.05
2019-04-25T10:17:16.702Z,41.16
2019-04-25T10:18:16.882Z,40.36
2019-04-25T10:19:17.023Z,41.69
2019-04-25T10:20:17.227Z,42.38
2019-04-25T10:21:17.393Z,44.04
2019-04-25T10:22:17.566Z,45.09
2019-04-25T10:23:17.764Z,45.41
2019-04-25T10:24:17.969Z,46.15
2019-04-25T10:25:18.121Z,48.95
2019-04-25T10:26:18.306Z,49.25
2019-04-25T10:27:18.508Z,45.65
2019-04-25T10:28:18.675Z,46.68
2019-04-25T10:29:18.831Z,47.51
2019-04-25T10:30:21.823Z,46.58
2019-04-25T10:31:20.146Z,46.68
2019-04-25T10:32:19.272Z,46.60
2019-04-25T10:33:19.453Z,46.60
2019-04-25T10:34:19.657Z,46.58
2019-04-25T10:35:19.817Z,46.54
2019-04-25T10:36:20.055Z,45.99
2019-04-25T10:37:20.276Z,44.76
2019-04-25T10:38:20.372Z,44.54
2019-04-25T10:39:20.615Z,45.32
2019-04-25T10:40:20.805Z,43.68
2019-04-25T10:41:21.033Z,42.18
2019-04-25T10:42:21.231Z,43.88
2019-04-25T10:43:21.744Z,42.68
2019-04-25T10:44:24.413Z,42.88
2019-04-25T10:45:24.256Z,42.80
2019-04-25T10:46:24.438Z,40.63
2019-04-25T10:47:22.206Z,42.41
2019-04-25T10:48:23.932Z,41.53
2019-04-25T10:49:23.550Z,41.45
2019-04-25T10:50:23.820Z,41.65
2019-04-25T10:51:23.990Z,42.44
2019-04-25T10:52:23.378Z,44.34
2019-04-25T10:53:25.172Z,41.33
2019-04-25T10:54:23.304Z,43.94
2019-04-25T10:55:23.493Z,43.34
2019-04-25T10:56:24.350Z,46.12
2019-04-25T10:57:26.326Z,43.92
2019-04-25T10:58:24.006Z,43.62
2019-04-25T10:59:24.207Z,42.19
2019-04-25T11:00:24.401Z,44.84
2019-04-25T11:01:24.647Z,43.52
2019-04-25T11:02:24.790Z,41.82
2019-04-25T11:03:26.436Z,41.93
2019-04-25T11:04:25.165Z,42.27
2019-04-25T11:05:25.240Z,42.86
2019-04-25T11:06:25.413Z,41.75
2019-04-25T11:07:25.620Z,40.47
2019-04-25T11:08:25.832Z,41.65
2019-04-25T11:09:26.011Z,44.64
2019-04-25T11:10:26.195Z,41.83
2019-04-25T11:11:26.382Z,42.60
2019-04-25T11:12:26.594Z,44.54
2019-04-25T11:13:26.823Z,39.59
2019-04-25T11:14:27.073Z,40.52
2019-04-25T11:15:27.338Z,39.52
2019-04-25T11:16:27.532Z,39.76
2019-04-25T11:17:27.613Z,35.75
2019-04-25T11:18:27.843Z,36.87
2019-04-25T11:19:28.007Z,37.10
2019-04-25T11:20:28.196Z,37.70
2019-04-25T11:21:28.380Z,39.82
2019-04-25T11:22:28.543Z,38.26
2019-04-25T11:23:28.753Z,39.48
2019-04-25T11:24:28.966Z,41.52
2019-04-25T11:25:29.171Z,41.11
2019-04-25T11:26:29.368Z,39.59
2019-04-25T11:27:29.547Z,41.52
2019-04-25T11:28:29.745Z,42.05
2019-04-25T11:29:29.936Z,42.07
2019-04-25T11:30:30.156Z,42.10
2019-04-25T11:31:30.258Z,42.11
2019-04-25T11:32:30.441Z,42.74
2019-04-25T11:33:30.653Z,44.04
2019-04-25T11:34:30.832Z,41.55
2019-04-25T11:35:31.052Z,41.57
2019-04-25T11:36:31.250Z,42.86
2019-04-25T11:37:31.403Z,42.24
2019-04-25T11:38:31.544Z,44.42
2019-04-25T11:39:31.724Z,42.61
2019-04-25T11:40:31.890Z,44.12
2019-04-25T11:41:32.046Z,42.21
2019-04-25T11:42:33.686Z,42.32
2019-04-25T11:43:33.767Z,42.02
2019-04-25T11:44:33.303Z,42.41
2019-04-25T11:45:32.737Z,40.21
2019-04-25T11:46:33.345Z,39.73
2019-04-25T11:47:34.043Z,42.41
2019-04-25T11:48:34.032Z,40.01
2019-04-25T11:49:34.005Z,38.27
2019-04-25T11:50:36.891Z,37.95
2019-04-25T11:51:34.169Z,37.98
2019-04-25T11:52:34.859Z,38.54
2019-04-25T11:53:34.117Z,36.70
2019-04-25T11:54:34.274Z,33.12
2019-04-25T11:55:34.430Z,34.11
2019-04-25T11:56:34.614Z,34.18
2019-04-25T11:57:34.803Z,35.52
2019-04-25T11:58:34.974Z,36.55
2019-04-25T11:59:35.105Z,38.09
2019-04-25T12:00:35.312Z,35.91
2019-04-25T12:01:35.463Z,36.95
2019-04-25T12:02:35.641Z,35.82
2019-04-25T12:03:35.872Z,36.07
2019-04-25T12:04:35.915Z,35.13
2019-04-25T12:05:36.144Z,34.03
2019-04-25T12:06:36.297Z,35.22
2019-04-25T12:07:36.464Z,32.01
2019-04-25T12:08:36.614Z,34.34
2019-04-25T12:09:36.790Z,35.08
2019-04-25T12:10:36.987Z,38.74
2019-04-25T12:11:37.185Z,37.98
2019-04-25T12:12:37.421Z,38.14
2019-04-25T12:13:37.481Z,35.94
2019-04-25T12:14:37.629Z,38.72
2019-04-25T12:15:37.785Z,38.82
2019-04-25T12:16:38.024Z,36.09
2019-04-25T12:17:38.094Z,37.29
2019-04-25T12:18:38.252Z,34.10
2019-04-25T12:19:39.431Z,35.06
2019-04-25T12:20:38.615Z,34.61
2019-04-25T12:21:38.791Z,34.18
2019-04-25T12:22:38.982Z,35.61
2019-04-25T12:23:39.168Z,35.94
2019-04-25T12:24:39.365Z,36.26
2019-04-25T12:25:39.515Z,37.27
2019-04-25T12:26:39.710Z,38.48
2019-04-25T12:27:39.933Z,39.56
2019-04-25T12:28:40.224Z,36.18
2019-04-25T12:29:40.314Z,39.37
2019-04-25T12:30:40.573Z,37.48
2019-04-25T12:31:40.649Z,37.88
2019-04-25T12:32:40.851Z,37.90
2019-04-25T12:33:41.018Z,36.44
2019-04-25T12:34:41.214Z,34.53
2019-04-25T12:35:41.392Z,35.42
2019-04-25T12:36:41.561Z,35.82
2019-04-25T12:37:41.767Z,35.58
2019-04-25T12:38:41.944Z,36.22
2019-04-25T12:39:43.144Z,37.48
2019-04-25T12:40:43.428Z,37.98
2019-04-25T12:41:44.205Z,39.28
2019-04-25T12:42:44.373Z,37.86
2019-04-25T12:43:43.876Z,38.14
2019-04-25T12:44:43.418Z,37.44
2019-04-25T12:45:45.716Z,38.04
2019-04-25T12:46:43.668Z,36.31
2019-04-25T12:47:45.332Z,36.69
2019-04-25T12:48:43.805Z,36.29
2019-04-25T12:49:43.970Z,33.07
2019-04-25T12:50:44.124Z,34.61
2019-04-25T12:51:44.315Z,32.43
2019-04-25T12:52:44.520Z,32.17
2019-04-25T12:53:44.676Z,35.47
2019-04-25T12:54:44.854Z,34.81